Latest Weather Observations for Port Pirie Airport AWS

IDS60801

Issued at 2:31 pm CST Monday 23 September 2019 (issued every 10 minutes, with the page automatically refreshed every 10 minutes)

About weather observations | Map of weather stations | Latest weather observations for SA | Other Formats
Station Details ID: 021139 Name: PORT PIRIE AERODROME AWS Lat: -33.24 Lon: 138.00 Height: 12.0 m
Data from the previous 72 hours. | See also: Recent months for locations in South Australia
Date/Time
CST
Temp
°C
App
Temp
°C
Dew
Point
°C
Rel
Hum
%
Delta-T
°C
Wind Press
QNH
hPa
Press
MSL
hPa
Rain since
9am
mm
Dir  Spd
km/h
Gust
km/h
Spd
kts
Gust
kts
23/02:00pm 17.3 11.9 2.5 37 6.7 WSW 20 32 11 17 1030.3 1030.3 0.0
23/01:30pm 16.8 11.7 4.2 43 5.9 WSW 20 32 11 17 1030.7 1030.7 0.0
23/01:00pm 16.0 10.9 3.1 42 5.9 SW 19 26 10 14 1030.9 1030.9 0.0
23/12:30pm 16.2 12.0 3.9 44 5.7 WSW 15 26 8 14 1031.0 1031.0 0.0
23/12:00pm 15.9 11.1 4.6 47 5.3 WSW 19 32 10 17 1030.9 1030.9 0.0
23/11:30am 15.9 10.9 3.7 44 5.6 SW 19 28 10 15 1031.1 1031.1 0.0
23/11:00am 15.7 10.9 4.4 47 5.3 WSW 19 28 10 15 1031.3 1031.3 0.0
23/10:30am 15.6 10.8 4.6 48 5.1 SW 19 26 10 14 1031.4 1031.4 0.0
23/10:00am 14.5 9.9 3.9 49 4.8 WSW 17 24 9 13 1031.5 1031.5 0.0
23/09:30am 13.9 10.3 5.0 55 4.1 SSW 13 20 7 11 1031.4 1031.4 0.0
23/09:00am 13.7 10.7 7.7 67 2.9 SSW 13 19 7 10 1031.4 1031.4 -
23/08:30am 12.3 10.1 8.0 75 2.1 SSE 9 17 5 9 1031.4 1031.4 -
23/08:00am 11.9 11.5 8.4 79 1.7 CALM 0 4 0 2 1031.2 1031.2 -
23/07:30am 9.9 8.3 7.8 87 1.0 NE 6 7 3 4 1031.1 1031.1 -
23/07:00am 7.1 4.5 6.0 93 0.5 E 9 11 5 6 1030.8 1030.8 -
23/06:30am 5.5 3.1 4.5 93 0.4 NNE 6 11 3 6 1030.2 1030.2 -
23/06:00am 6.5 5.5 5.8 95 0.3 CALM 0 6 0 3 1030.1 1030.1 -
23/05:30am 5.9 4.8 4.9 93 0.4 CALM 0 0 0 0 1029.8 1029.8 -
23/05:00am 7.4 6.6 6.7 95 0.3 CALM 0 0 0 0 1029.6 1029.6 -
23/04:30am 5.8 4.6 4.6 92 0.5 CALM 0 0 0 0 1029.3 1029.3 -
23/04:00am 7.6 5.7 6.5 93 0.5 WSW 6 7 3 4 1029.1 1029.1 -
23/03:30am 8.0 6.1 6.9 93 0.5 WSW 6 7 3 4 1029.0 1029.0 -
23/03:00am 7.5 4.9 6.3 92 0.5 WSW 9 11 5 6 1028.7 1028.7 0.0
23/02:30am 7.7 4.4 6.3 91 0.6 WSW 13 15 7 8 1028.7 1028.7 -
23/02:00am 7.9 4.6 6.5 91 0.6 WSW 13 15 7 8 1028.8 1028.8 -
23/01:30am 8.3 5.1 6.8 90 0.7 WSW 13 15 7 8 1028.8 1028.8 -
23/01:00am 9.0 5.5 7.3 89 0.8 W 15 17 8 9 1028.8 1028.8 -
23/12:30am 10.0 6.3 7.9 87 1.0 WSW 17 20 9 11 1028.8 1028.8 -
23/12:00am 9.7 6.4 8.0 89 0.8 W 15 19 8 10 1028.7 1028.7 -
 
Date/Time
CST
Temp
°C
App
Temp
°C
Dew
Point
°C
Rel
Hum
%
Delta-T
°C
Wind Press
QNH
hPa
Press
MSL
hPa
Rain since
9am
mm
Dir  Spd
km/h
Gust
km/h
Spd
kts
Gust
kts
22/11:30pm 9.3 6.2 7.3 87 0.9 W 13 17 7 9 1028.7 1028.7 -
22/11:00pm 9.6 6.5 7.2 85 1.1 W 13 15 7 8 1028.8 1028.8 -
22/10:30pm 10.6 7.7 8.0 84 1.3 W 13 15 7 8 1028.6 1028.6 -
22/10:00pm 11.4 8.6 8.4 82 1.5 WSW 13 17 7 9 1028.5 1028.5 -
22/09:30pm 11.5 9.9 8.7 83 1.4 WSW 7 11 4 6 1028.5 1028.5 -
22/09:00pm 11.5 10.0 9.1 85 1.2 N 7 11 4 6 1028.1 1028.1 0.0
22/08:30pm 11.3 9.0 8.9 85 1.2 NNW 11 13 6 7 1027.8 1027.8 -
22/08:00pm 10.2 7.7 8.0 86 1.1 N 11 13 6 7 1027.6 1027.6 -
22/07:30pm 10.6 9.9 8.5 87 1.0 SE 2 6 1 3 1027.1 1027.1 -
22/07:00pm 10.6 9.7 7.8 83 1.4 NNW 2 7 1 4 1026.9 1026.9 -
22/06:30pm 11.6 9.4 7.9 78 1.8 NW 9 9 5 5 1026.6 1026.6 -
22/06:00pm 12.0 9.2 6.9 71 2.4 NW 11 13 6 7 1026.3 1026.3 -
22/05:30pm 13.6 10.6 6.2 61 3.5 W 11 13 6 7 1026.2 1026.2 -
22/05:00pm 14.1 10.3 7.6 65 3.2 WSW 17 22 9 12 1026.2 1026.2 -
22/04:30pm 14.3 9.8 7.1 62 3.5 WSW 20 28 11 15 1026.0 1026.0 -
22/04:00pm 14.2 9.1 7.5 64 3.3 WNW 24 30 13 16 1026.0 1026.0 -
22/03:34pm 14.9 8.7 6.2 56 4.2 WNW 28 46 15 25 1025.7 1025.7 -
22/03:30pm 15.4 9.8 5.6 52 4.6 NW 24 39 13 21 1025.6 1025.6 -
22/03:00pm 14.7 10.6 6.0 56 4.1 NNW 17 24 9 13 1025.1 1025.1 -
22/02:30pm 15.7 11.4 7.2 57 4.2 NNW 19 24 10 13 1025.6 1025.6 -
22/02:00pm 13.7 9.4 7.7 67 3.0 W 20 30 11 16 1026.1 1026.1 -
22/01:30pm 14.9 9.6 5.1 52 4.6 NNW 22 30 12 16 1026.0 1026.0 -
22/01:00pm 15.6 11.0 6.6 55 4.4 NNW 20 30 11 16 1026.1 1026.1 -
22/12:00pm 15.3 10.3 6.3 55 4.3 NW 22 32 12 17 1027.0 1027.0 0.0
22/11:30am 14.7 9.3 6.5 58 3.9 NW 24 35 13 19 1027.1 1027.1 0.0
22/11:00am 13.7 8.8 7.0 64 3.3 NW 22 28 12 15 1027.2 1027.2 0.0
22/10:30am 13.4 8.6 7.2 66 3.0 NW 22 30 12 16 1027.5 1027.5 0.0
22/10:00am 12.5 7.3 7.4 71 2.5 NW 24 32 13 17 1027.7 1027.7 0.0
22/09:30am 12.5 8.2 7.8 73 2.3 NW 20 26 11 14 1027.5 1027.5 0.0
22/09:00am 11.6 7.3 7.1 74 2.1 NW 19 24 10 13 1027.3 1027.3 5.6
22/08:30am 11.2 7.5 8.1 81 1.5 NNW 17 22 9 12 1027.0 1027.0 5.6
22/08:00am 10.1 7.1 7.9 86 1.1 NNW 13 17 7 9 1026.9 1026.9 5.6
22/07:30am 9.1 6.8 7.5 90 0.8 N 9 11 5 6 1026.7 1026.7 5.6
22/07:00am 7.4 4.8 5.9 90 0.7 N 9 13 5 7 1026.3 1026.3 5.6
22/06:30am 6.5 3.7 5.3 92 0.5 N 9 11 5 6 1025.9 1025.9 5.6
22/06:00am 5.6 2.3 4.4 92 0.5 N 11 13 6 7 1025.7 1025.7 5.6
22/05:30am 6.7 3.9 5.2 90 0.7 NNW 9 13 5 7 1025.3 1025.3 5.6
22/05:00am 5.0 3.6 3.8 92 0.5 CALM 0 7 0 4 1025.0 1025.0 5.6
22/04:30am 5.4 2.9 3.9 90 0.6 NNW 6 7 3 4 1024.6 1024.6 5.6
22/04:00am 5.8 4.6 4.6 92 0.5 CALM 0 0 0 0 1024.3 1024.3 5.6
22/03:30am 6.1 2.8 4.7 91 0.6 W 11 11 6 6 1024.3 1024.3 5.6
22/03:00am 6.7 4.3 5.3 91 0.6 WNW 7 9 4 5 1024.2 1024.2 5.6
22/02:30am 6.6 4.2 5.2 91 0.6 N 7 7 4 4 1024.2 1024.2 5.6
22/02:00am 7.3 4.3 5.8 90 0.7 NNW 11 13 6 7 1024.3 1024.3 5.6
22/01:30am 7.5 4.4 5.6 88 0.8 N 11 13 6 7 1024.3 1024.3 5.6
22/01:00am 8.2 4.9 6.2 87 0.9 NNE 13 15 7 8 1024.5 1024.5 5.6
22/12:30am 8.7 5.7 6.2 84 1.1 NNE 11 13 6 7 1024.8 1024.8 5.6
22/12:00am 8.8 6.6 6.1 83 1.2 NNE 7 11 4 6 1024.8 1024.8 5.6
 
Date/Time
CST
Temp
°C
App
Temp
°C
Dew
Point
°C
Rel
Hum
%
Delta-T
°C
Wind Press
QNH
hPa
Press
MSL
hPa
Rain since
9am
mm
Dir  Spd
km/h
Gust
km/h
Spd
kts
Gust
kts
21/11:30pm 9.1 6.6 6.7 85 1.1 NE 9 11 5 6 1024.7 1024.7 5.6
21/11:00pm 8.9 5.9 6.0 82 1.3 SSE 11 19 6 10 1024.7 1024.7 5.6
21/10:30pm 8.7 5.6 7.3 91 0.7 NNW 13 15 7 8 1024.6 1024.6 0.0
21/10:00pm 8.2 5.3 6.7 90 0.7 NNW 11 11 6 6 1024.6 1024.6 0.0
21/09:30pm 9.0 6.6 7.1 88 0.9 NNW 9 9 5 5 1024.4 1024.4 0.0
21/09:00pm 9.4 7.0 7.2 86 1.0 NNW 9 9 5 5 1024.2 1024.2 0.0
21/08:30pm 10.7 8.8 7.6 81 1.5 N 7 9 4 5 1024.0 1023.9 0.0
21/08:00pm 11.0 8.4 7.7 80 1.6 N 11 13 6 7 1024.0 1023.9 0.0
21/07:30pm 11.5 10.4 8.4 81 1.5 NNE 4 9 2 5 1023.8 1023.7 0.0
21/07:00pm 11.7 11.3 8.2 79 1.7 CALM 0 0 0 0 1023.5 1023.4 0.0
21/06:30pm 11.8 9.5 7.5 75 2.1 SW 9 11 5 6 1023.3 1023.2 0.0
21/06:00pm 12.2 9.0 6.9 70 2.5 SSW 13 17 7 9 1022.9 1022.8 0.0
21/05:30pm 12.6 9.0 6.6 67 2.9 SW 15 17 8 9 1022.6 1022.5 0.0
21/05:00pm 12.8 9.8 7.5 70 2.6 SW 13 19 7 10 1022.2 1022.1 0.0
21/04:30pm 11.3 5.6 8.3 82 1.5 WSW 28 35 15 19 1022.1 1022.0 0.0
21/04:00pm 13.7 9.2 6.3 61 3.5 SW 19 26 10 14 1021.5 1021.4 0.0
21/03:30pm 13.2 9.2 8.9 75 2.2 SW 20 32 11 17 1021.2 1021.1 0.0
21/03:00pm 14.5 8.1 5.0 53 4.4 SW 28 35 15 19 1021.0 1020.9 0.0
21/02:30pm 14.7 9.1 7.0 60 3.8 SW 26 30 14 16 1020.6 1020.5 0.0
21/02:00pm 15.2 9.7 6.0 54 4.4 SW 24 33 13 18 1020.4 1020.3 0.0
21/01:30pm 15.4 9.8 5.3 51 4.8 SW 24 33 13 18 1020.4 1020.3 0.0
21/01:00pm 15.3 10.2 7.8 61 3.7 WSW 24 30 13 16 1020.6 1020.5 0.0
21/12:30pm 15.5 10.2 8.5 63 3.5 SW 26 32 14 17 1020.7 1020.6 0.0
21/12:00pm 15.2 9.6 8.7 65 3.3 WSW 28 39 15 21 1020.5 1020.4 0.0
21/11:30am 14.4 8.1 7.5 63 3.4 SW 30 41 16 22 1020.3 1020.2 0.0
21/11:00am 14.4 7.9 8.1 66 3.1 WSW 32 41 17 22 1020.0 1019.9 0.0
21/10:30am 14.3 7.5 7.6 64 3.3 WSW 33 43 18 23 1019.7 1019.6 0.0
21/10:00am 13.7 7.1 7.9 68 2.9 WSW 32 37 17 20 1019.4 1019.3 0.0
21/09:30am 13.0 6.5 8.3 73 2.3 WSW 32 39 17 21 1019.5 1019.4 0.0
21/09:00am 12.0 6.3 8.3 78 1.8 WSW 28 35 15 19 1019.5 1019.4 12.8
21/08:30am 11.8 6.5 8.6 81 1.6 W 26 35 14 19 1018.9 1018.8 12.8
21/08:00am 11.4 5.3 8.3 81 1.5 WSW 30 35 16 19 1018.6 1018.5 12.8
21/07:30am 10.9 6.8 8.7 86 1.1 W 20 26 11 14 1018.2 1018.1 12.8
21/07:00am 9.3 6.0 7.9 91 0.7 NW 15 17 8 9 1018.0 1017.9 12.8
21/06:30am 8.4 4.5 7.2 92 0.6 WNW 17 20 9 11 1017.2 1017.1 12.8
21/06:00am 8.6 4.2 7.2 91 0.7 WNW 20 24 11 13 1016.6 1016.6 12.8
21/05:30am 8.7 4.3 7.5 92 0.6 W 20 24 11 13 1016.0 1016.0 12.8
21/05:00am 8.8 4.4 7.4 91 0.7 WNW 20 24 11 13 1015.5 1015.5 12.8
21/04:30am 8.2 5.4 6.8 91 0.6 NW 11 15 6 8 1015.0 1015.0 12.8
21/04:00am 8.8 4.9 7.3 90 0.7 WNW 17 20 9 11 1014.7 1014.7 12.6
21/03:30am 9.2 5.4 7.6 90 0.8 WNW 17 20 9 11 1014.9 1014.9 12.6
21/03:00am 9.6 5.3 8.0 90 0.8 WNW 20 28 11 15 1014.9 1014.9 12.6
21/02:30am 9.6 5.4 8.2 91 0.7 WNW 20 24 11 13 1014.6 1014.6 12.6
21/02:00am 9.1 5.4 7.9 92 0.6 WNW 17 20 9 11 1014.7 1014.7 12.6
21/01:30am 9.6 5.6 8.2 91 0.7 WNW 19 22 10 12 1014.9 1014.9 12.6
21/01:00am 9.3 6.4 8.2 93 0.5 WNW 13 15 7 8 1015.0 1015.0 12.6
21/12:30am 10.0 6.5 8.8 92 0.6 WNW 17 19 9 10 1015.3 1015.3 12.6
21/12:00am 10.3 7.5 8.7 90 0.8 WNW 13 17 7 9 1015.3 1015.3 12.6
 
Date/Time
CST
Temp
°C
App
Temp
°C
Dew
Point
°C
Rel
Hum
%
Delta-T
°C
Wind Press
QNH
hPa
Press
MSL
hPa
Rain since
9am
mm
Dir  Spd
km/h
Gust
km/h
Spd
kts
Gust
kts
20/11:30pm 10.6 8.3 9.0 90 0.8 W 11 13 6 7 1015.2 1015.2 12.6
20/11:00pm 11.0 8.9 9.6 91 0.7 W 11 13 6 7 1014.8 1014.8 12.6
20/10:30pm 11.0 8.9 9.6 91 0.7 WSW 11 15 6 8 1014.9 1014.9 12.6
20/10:00pm 10.9 7.1 9.8 93 0.6 WSW 20 24 11 13 1015.6 1015.6 12.6
20/09:30pm 11.3 7.6 10.2 93 0.6 WSW 20 26 11 14 1015.3 1015.3 12.4
20/09:00pm 11.5 8.5 10.6 94 0.5 W 17 24 9 13 1015.6 1015.6 11.8
20/08:30pm 11.5 9.6 10.6 94 0.5 W 11 13 6 7 1015.7 1015.7 10.8
20/08:00pm 11.6 9.8 10.7 94 0.5 WSW 11 13 6 7 1015.6 1015.6 10.4
20/07:30pm 11.5 10.3 10.4 93 0.6 W 7 9 4 5 1015.3 1015.3 9.8
20/07:00pm 11.6 10.7 10.7 94 0.5 S 6 7 3 4 1014.6 1014.6 9.2
20/06:30pm 11.7 9.5 10.8 94 0.5 WSW 13 17 7 9 1015.3 1015.3 8.4
20/06:00pm 11.9 8.6 10.8 93 0.6 WSW 19 24 10 13 1015.3 1015.3 7.0
20/05:30pm 12.5 10.5 11.6 94 0.5 SSW 13 17 7 9 1014.2 1014.2 5.0
20/05:00pm 12.5 11.7 11.2 92 0.7 S 6 11 3 6 1014.1 1014.1 3.4
20/04:30pm 12.8 10.5 11.7 93 0.6 SSW 15 19 8 10 1013.6 1013.6 2.2
20/04:00pm 12.8 7.8 11.0 89 0.9 SW 28 37 15 20 1013.3 1013.3 1.4
20/03:30pm 13.4 7.8 11.6 89 1.0 SW 32 39 17 21 1013.2 1013.2 0.0
20/03:00pm 14.3 7.7 11.3 82 1.6 SW 37 46 20 25 1013.0 1013.0 0.0

Other formats

Comma delimited format used in spreadsheet applications
http://www.bom.gov.au/fwo/IDS60801/IDS60801.99749.axf

JavaScript Object Notation format (JSON) in row-major order
http://www.bom.gov.au/fwo/IDS60801/IDS60801.99749.json

Data quality

Most of these data are generated automatically and are frequently updated. Quality checks on data are not normally performed. It is possible for incorrect values to appear. Refer to information at About Latest Weather Observations and please check the disclaimer before using these data.